
Distance (Route):
Temperature : 27.3°C
Humidity : 44.9%
Pressure : 0hPa| Receiver | Date | Latitude | Longitude | Direction | Speed | Altitude | Climb | Temperature | Humidity | Pressure | Voltage | Killtimer | Uptime | BKT | XDATA |
|---|---|---|---|---|---|---|---|---|---|---|---|---|---|---|---|
| LZ4TU-5 | 2026-09-01 19:05:18 | 44.18823 | 23.48023 | 155° | 9km/h | 476m | -11.2m/s | 27.3°C | 44.9% | 0hPa | 0V | 00:00:00 | 00:00:00 | 00:00:00 | |
| LZ4TU-5 | 2026-09-01 19:05:12 | 44.18836 | 23.48023 | 196° | 9km/h | 539m | -10.9m/s | 26.8°C | 45.5% | 0hPa | 0V | 00:00:00 | 00:00:00 | 00:00:00 | |
| LZ4TU-5 | 2026-09-01 19:05:06 | 44.18850 | 23.48029 | 199° | 9km/h | 611m | -11.5m/s | 26.5°C | 45.9% | 0hPa | 0V | 00:00:00 | 00:00:00 | 00:00:00 | |
| LZ4TU-5 | 2026-09-01 19:05:01 | 44.18863 | 23.48050 | 192° | 11km/h | 669m | -11.2m/s | 26.0°C | 46.6% | 0hPa | 0V | 00:00:00 | 00:00:00 | 00:00:00 | |
| LZ4TU-5 | 2026-09-01 19:04:57 | 44.18875 | 23.48034 | 183° | 13km/h | 717m | -12.1m/s | 25.7°C | 47.1% | 0hPa | 0V | 00:00:00 | 00:00:00 | 00:00:00 | |
| LZ4TU-5 | 2026-09-01 19:04:52 | 44.18892 | 23.48034 | 175° | 13km/h | 778m | -11.5m/s | 25.2°C | 48.0% | 0hPa | 0V | 00:00:00 | 00:00:00 | 00:00:00 | |
| LZ4TU-5 | 2026-09-01 19:04:47 | 44.18909 | 23.48032 | 171° | 13km/h | 835m | -11.2m/s | 24.7°C | 49.1% | 0hPa | 0V | 00:00:00 | 00:00:00 | 00:00:00 | |
| LZ4TU-5 | 2026-09-01 19:04:43 | 44.18921 | 23.48029 | 165° | 15km/h | 871m | -11.1m/s | 24.4°C | 49.8% | 0hPa | 0V | 00:00:00 | 00:00:00 | 00:00:00 | |
| LZ4TU-5 | 2026-09-01 19:04:39 | 44.18935 | 23.48023 | 169° | 15km/h | 920m | -11.9m/s | 24.0°C | 50.7% | 0hPa | 0V | 00:00:00 | 00:00:00 | 00:00:00 | |
| LZ4TU-5 | 2026-09-01 19:04:34 | 44.18953 | 23.48018 | 166° | 15km/h | 982m | -12.4m/s | 23.4°C | 52.0% | 0hPa | 0V | 00:00:00 | 00:00:00 | 00:00:00 | |
| LZ4TU-5 | 2026-09-01 19:04:29 | 44.18971 | 23.48010 | 162° | 15km/h | 1045m | -12.7m/s | 22.8°C | 53.6% | 0hPa | 0V | 00:00:00 | 00:00:00 | 00:00:00 | |
| LZ4TU-5 | 2026-09-01 19:04:25 | 44.18987 | 23.48003 | 163° | 16km/h | 1098m | -12.0m/s | 22.3°C | 54.7% | 0hPa | 0V | 00:00:00 | 00:00:00 | 00:00:00 | |
| LZ4TU-5 | 2026-09-01 19:04:20 | 44.19006 | 23.47994 | 162° | 16km/h | 1162m | -12.4m/s | 21.8°C | 55.9% | 0hPa | 0V | 00:00:00 | 00:00:00 | 00:00:00 | |
| LZ4TU-5 | 2026-09-01 19:04:15 | 44.19025 | 23.47986 | 157° | 15km/h | 1224m | -12.1m/s | 21.3°C | 57.1% | 0hPa | 0V | 00:00:00 | 00:00:00 | 00:00:00 | |
| LZ4TU-5 | 2026-09-01 19:04:10 | 44.19041 | 23.47976 | 156° | 13km/h | 1289m | -12.3m/s | 20.7°C | 58.4% | 0hPa | 0V | 00:00:00 | 00:00:00 | 00:00:00 | |
| LZ4TU-5 | 2026-09-01 19:04:06 | 44.19053 | 23.47967 | 152° | 13km/h | 1341m | -12.5m/s | 20.3°C | 59.6% | 0hPa | 0V | 00:00:00 | 00:00:00 | 00:00:00 | |
| LZ4TU-5 | 2026-09-01 19:04:01 | 44.19066 | 23.47956 | 154° | 11km/h | 1398m | -12.2m/s | 19.7°C | 61.3% | 0hPa | 0V | 00:00:00 | 00:00:00 | 00:00:00 | |
| LZ4TU-5 | 2026-09-01 19:03:56 | 44.19078 | 23.47946 | 147° | 11km/h | 1449m | -12.2m/s | 19.1°C | 62.9% | 0hPa | 0V | 00:00:00 | 00:00:00 | 00:00:00 | |
| LZ4TU-5 | 2026-09-01 19:03:51 | 44.19092 | 23.47936 | 154° | 13km/h | 1513m | -12.4m/s | 18.5°C | 64.7% | 0hPa | 0V | 00:00:00 | 00:00:00 | 00:00:00 | |
| LZ4TU-5 | 2026-09-01 19:03:47 | 44.19103 | 23.47927 | 154° | 13km/h | 1564m | -12.6m/s | 18.0°C | 66.1% | 0hPa | 0V | 00:00:00 | 00:00:00 | 00:00:00 | |
| LZ4TU-5 | 2026-09-01 19:03:42 | 44.19117 | 23.47918 | 153° | 11km/h | 1629m | -12.2m/s | 17.4°C | 67.7% | 0hPa | 0V | 00:00:00 | 00:00:00 | 00:00:00 | |
| LZ4TU-5 | 2026-09-01 19:03:37 | 44.19130 | 23.47908 | 154° | 11km/h | 1693m | -12.5m/s | 16.9°C | 69.5% | 0hPa | 0V | 00:00:00 | 00:00:00 | 00:00:00 | |
| LZ4TU-5 | 2026-09-01 19:03:33 | 44.19141 | 23.47901 | 155° | 11km/h | 1747m | -13.1m/s | 16.4°C | 70.7% | 0hPa | 0V | 00:00:00 | 00:00:00 | 00:00:00 | |
| LZ4TU-5 | 2026-09-01 19:03:28 | 44.19153 | 23.47894 | 152° | 9km/h | 1811m | -12.7m/s | 15.9°C | 71.7% | 0hPa | 0V | 00:00:00 | 00:00:00 | 00:00:00 | |
| LZ4TU-5 | 2026-09-01 19:03:24 | 44.19161 | 23.47887 | 146° | 7km/h | 1863m | -12.5m/s | 15.4°C | 72.8% | 0hPa | 0V | 00:00:00 | 00:00:00 | 00:00:00 | |
| LZ4TU-5 | 2026-09-01 19:03:19 | 44.19167 | 23.47879 | 111° | 5km/h | 1926m | -13.1m/s | 15.1°C | 76.4% | 0hPa | 0V | 00:00:00 | 00:00:00 | 00:00:00 | |
| LZ4TU-5 | 2026-09-01 19:03:10 | 44.19165 | 23.47860 | 72° | 9km/h | 2030m | -13.0m/s | 14.2°C | 79.3% | 0hPa | 0V | 00:00:00 | 00:00:00 | 00:00:00 | |
| LZ4TU-5 | 2026-09-01 19:03:05 | 44.19160 | 23.47848 | 52° | 9km/h | 2097m | -13.3m/s | 13.6°C | 81.7% | 0hPa | 0V | 00:00:00 | 00:00:00 | 00:00:00 | |
| LZ4TU-5 | 2026-09-01 19:03:01 | 44.19155 | 23.47840 | 26° | 9km/h | 2152m | -12.8m/s | 13.3°C | 81.9% | 0hPa | 0V | 00:00:00 | 00:00:00 | 00:00:00 | |
| LZ4TU-5 | 2026-09-01 19:02:56 | 44.19142 | 23.47834 | 15° | 13km/h | 2219m | -12.8m/s | 12.8°C | 81.7% | 0hPa | 0V | 00:00:00 | 00:00:00 | 00:00:00 | |
| LZ4TU-5 | 2026-09-01 19:02:51 | 44.19126 | 23.47827 | 26° | 15km/h | 2287m | -13.3m/s | 12.3°C | 81.4% | 0hPa | 0V | 00:00:00 | 00:00:00 | 00:00:00 | |
| LZ4TU-5 | 2026-09-01 19:02:47 | 44.19112 | 23.47816 | 36° | 16km/h | 2342m | -13.1m/s | 12.3°C | 75.9% | 0hPa | 0V | 00:00:00 | 00:00:00 | 00:00:00 | |
| LZ4TU-5 | 2026-09-01 19:02:42 | 44.19095 | 23.47796 | 41° | 18km/h | 2410m | -13.6m/s | 11.9°C | 75.2% | 0hPa | 0V | 00:00:00 | 00:00:00 | 00:00:00 | |
| LZ4TU-5 | 2026-09-01 19:02:37 | 44.19078 | 23.47773 | 51° | 18km/h | 2468m | -13.2m/s | 11.4°C | 76.4% | 0hPa | 0V | 00:00:00 | 00:00:00 | 00:00:00 | |
| LZ4TU-5 | 2026-09-01 19:02:33 | 44.19067 | 23.47752 | 59° | 18km/h | 2523m | -13.8m/s | 11.0°C | 75.7% | 0hPa | 0V | 00:00:00 | 00:00:00 | 00:00:00 | |
| LZ4TU-5 | 2026-09-01 19:02:28 | 44.19055 | 23.47722 | 67° | 20km/h | 2587m | -12.8m/s | 10.5°C | 78.1% | 0hPa | 0V | 00:00:00 | 00:00:00 | 00:00:00 | |
| LZ4TU-5 | 2026-09-01 19:02:23 | 44.19044 | 23.47691 | 74° | 20km/h | 2646m | -13.1m/s | 10.0°C | 81.0% | 0hPa | 0V | 00:00:00 | 00:00:00 | 00:00:00 | |
| LZ4TU-5 | 2026-09-01 19:02:19 | 44.19040 | 23.47662 | 79° | 20km/h | 2698m | -12.7m/s | 9.7°C | 80.8% | 0hPa | 0V | 00:00:00 | 00:00:00 | 00:00:00 | |
| LZ4TU-5 | 2026-09-01 19:02:14 | 44.19036 | 23.47625 | 83° | 20km/h | 2764m | -13.9m/s | 9.1°C | 81.6% | 0hPa | 0V | 00:00:00 | 00:00:00 | 00:00:00 | |
| LZ4TU-5 | 2026-09-01 19:02:10 | 44.19033 | 23.47599 | 84° | 20km/h | 2818m | -13.6m/s | 8.8°C | 81.3% | 0hPa | 0V | 00:00:00 | 00:00:00 | 00:00:00 | |
| LZ4TU-5 | 2026-09-01 19:02:05 | 44.19029 | 23.47564 | 87° | 20km/h | 2879m | -13.1m/s | 8.2°C | 83.4% | 0hPa | 0V | 00:00:00 | 00:00:00 | 00:00:00 | |
| LZ4TU-5 | 2026-09-01 19:02:01 | 44.19028 | 23.47536 | 87° | 20km/h | 2932m | -13.1m/s | 7.7°C | 84.8% | 0hPa | 0V | 00:00:00 | 00:00:00 | 00:00:00 | |
| LZ4TU-5 | 2026-09-01 19:01:56 | 44.19027 | 23.47501 | 94° | 20km/h | 2998m | -12.5m/s | 7.0°C | 87.9% | 0hPa | 0V | 00:00:00 | 00:00:00 | 00:00:00 | |
| LZ4TU-5 | 2026-09-01 19:01:51 | 44.19029 | 23.47466 | 93° | 20km/h | 3061m | -13.3m/s | 6.5°C | 88.5% | 0hPa | 0V | 00:00:00 | 00:00:00 | 00:00:00 | |
| LZ4TU-5 | 2026-09-01 19:01:47 | 44.19029 | 23.47437 | 94° | 22km/h | 3112m | -13.1m/s | 6.1°C | 85.1% | 0hPa | 0V | 00:00:00 | 00:00:00 | 00:00:00 | |
| LZ4TU-5 | 2026-09-01 19:01:42 | 44.19029 | 23.47397 | 87° | 22km/h | 3177m | -12.8m/s | 5.5°C | 87.8% | 0hPa | 0V | 00:00:00 | 00:00:00 | 00:00:00 | |
| LZ4TU-5 | 2026-09-01 19:01:37 | 44.19028 | 23.47359 | 91° | 20km/h | 3246m | -13.3m/s | 4.8°C | 89.8% | 0hPa | 0V | 00:00:00 | 00:00:00 | 00:00:00 | |
| LZ4TU-5 | 2026-09-01 19:01:32 | 44.19028 | 23.47322 | 90° | 22km/h | 3313m | -13.1m/s | 4.2°C | 91.6% | 0hPa | 0V | 00:00:00 | 00:00:00 | 00:00:00 | |
| LZ4TU-5 | 2026-09-01 19:01:27 | 44.19026 | 23.47282 | 86° | 24km/h | 3383m | -13.2m/s | 3.7°C | 83.2% | 0hPa | 0V | 00:00:00 | 00:00:00 | 00:00:00 | |
| LZ4TU-5 | 2026-09-01 19:01:23 | 44.19023 | 23.47249 | 85° | 24km/h | 3437m | -13.4m/s | 3.6°C | 62.5% | 0hPa | 0V | 00:00:00 | 00:00:00 | 00:00:00 | |
| LZ4TU-5 | 2026-09-01 19:01:18 | 44.19021 | 23.47208 | 82° | 24km/h | 3506m | -14.0m/s | 3.0°C | 59.9% | 0hPa | 0V | 00:00:00 | 00:00:00 | 00:00:00 | |
| LZ4TU-5 | 2026-09-01 19:01:13 | 44.19017 | 23.47168 | 82° | 24km/h | 3569m | -12.9m/s | 2.6°C | 54.6% | 0hPa | 0V | 00:00:00 | 00:00:00 | 00:00:00 | |
| LZ4TU-5 | 2026-09-01 19:01:08 | 44.19011 | 23.47124 | 83° | 27km/h | 3627m | -13.4m/s | 2.5°C | 0% | 0hPa | 0V | 00:00:00 | 00:00:00 | 00:00:00 | |
| LZ4TU-5 | 2026-09-01 18:59:04 | 44.19092 | 23.45606 | 110° | 40km/h | 5258m | -14.8m/s | -4.5°C | 6.0% | 0hPa | 0V | 00:00:00 | 00:00:00 | 00:00:00 | |
| LZ4TU-5 | 2026-09-01 18:59:00 | 44.19106 | 23.45551 | 109° | 42km/h | 5314m | -13.2m/s | -4.8°C | 6.4% | 0hPa | 0V | 00:00:00 | 00:00:00 | 00:00:00 | |
| LZ4TU-5 | 2026-09-01 18:57:26 | 44.19219 | 23.44177 | 96° | 46km/h | 6568m | -14.2m/s | -13.6°C | 6.3% | 0hPa | 0V | 00:00:00 | 00:00:00 | 00:00:00 | |
| LZ4TU-5 | 2026-09-01 18:57:22 | 44.19222 | 23.44114 | 93° | 46km/h | 6625m | -13.5m/s | -14.0°C | 6.0% | 0hPa | 0V | 00:00:00 | 00:00:00 | 00:00:00 | |
| LZ4TU-5 | 2026-09-01 18:56:13 | 44.19336 | 23.42818 | 100° | 60km/h | 7561m | -14.1m/s | -20.8°C | 29.1% | 0hPa | 0V | 00:00:00 | 00:00:00 | 00:00:00 | |
| LZ4TU-5 | 2026-09-01 18:56:08 | 44.19347 | 23.42714 | 100° | 60km/h | 7632m | -14.1m/s | -21.4°C | 0% | 0hPa | 0V | 00:00:00 | 00:00:00 | 00:00:00 | |
| LZ4TU-5 | 2026-09-01 18:54:52 | 44.19595 | 23.40911 | 104° | 69km/h | 8687m | -14.3m/s | -30.3°C | 35.2% | 0hPa | 0V | 00:00:00 | 00:00:00 | 00:00:00 | |
| LZ4TU-5 | 2026-09-01 18:54:47 | 44.19615 | 23.40792 | 103° | 69km/h | 8756m | -12.9m/s | -30.8°C | 33.6% | 0hPa | 0V | 00:00:00 | 00:00:00 | 00:00:00 | |
| LZ4TU-5 | 2026-09-01 18:53:31 | 44.19842 | 23.38775 | 99° | 91km/h | 9837m | -14.4m/s | -38.9°C | 19.3% | 0hPa | 0V | 00:00:00 | 00:00:00 | 00:00:00 | |
| LZ4TU-5 | 2026-09-01 18:53:26 | 44.19857 | 23.38615 | 98° | 91km/h | 9910m | -14.5m/s | -39.5°C | 19.7% | 0hPa | 0V | 00:00:00 | 00:00:00 | 00:00:00 | |
| LZ4TU-5 | 2026-09-01 18:52:13 | 44.19986 | 23.35962 | 91° | 115km/h | 11029m | -16.0m/s | -46.6°C | 23.3% | 0hPa | 0V | 00:00:00 | 00:00:00 | 00:00:00 | |
| LZ4TU-5 | 2026-09-01 18:52:09 | 44.19984 | 23.35801 | 90° | 117km/h | 11091m | -14.8m/s | -46.7°C | 23.2% | 0hPa | 0V | 00:00:00 | 00:00:00 | 00:00:00 | |
| LZ4TU-5 | 2026-09-01 18:52:04 | 44.19981 | 23.35597 | 89° | 119km/h | 11169m | -15.1m/s | -47.4°C | 23.2% | 0hPa | 0V | 00:00:00 | 00:00:00 | 00:00:00 | |
| LZ4TU-5 | 2026-09-01 18:52:00 | 44.19976 | 23.35430 | 89° | 120km/h | 11230m | -14.9m/s | -47.9°C | 0% | 0hPa | 0V | 00:00:00 | 00:00:00 | 00:00:00 | |
| LZ4TU-5 | 2026-09-01 18:50:07 | 44.19994 | 23.30276 | 92° | 120km/h | 13208m | -20.6m/s | -58.6°C | 8.7% | 0hPa | 0V | 00:00:00 | 00:00:00 | 00:00:00 | |
| LZ4TU-5 | 2026-09-01 18:50:03 | 44.19995 | 23.30107 | 90° | 119km/h | 13292m | -20.8m/s | -58.8°C | 7.9% | 0hPa | 0V | 00:00:00 | 00:00:00 | 00:00:00 | |
| LZ4TU-5 | 2026-09-01 18:48:45 | 44.20006 | 23.27458 | 90° | 80km/h | 14771m | -20.6m/s | -59.2°C | 0.0% | 0hPa | 0V | 00:00:00 | 00:00:00 | 00:00:00 | |
| LZ4TU-5 | 2026-09-01 18:48:40 | 44.20004 | 23.27316 | 89° | 80km/h | 14868m | -20.2m/s | -59.4°C | 0.0% | 0hPa | 0V | 00:00:00 | 00:00:00 | 00:00:00 | |
| LZ4TU-5 | 2026-09-01 18:47:25 | 44.19856 | 23.25404 | 111° | 68km/h | 16352m | -20.8m/s | -60.3°C | 0.0% | 0hPa | 0V | 00:00:00 | 00:00:00 | 00:00:00 | |
| LZ4TU-5 | 2026-09-01 18:47:20 | 44.19886 | 23.25308 | 112° | 47km/h | 16463m | -22.9m/s | -59.1°C | 0.0% | 0hPa | 0V | 00:00:00 | 00:00:00 | 00:00:00 | |
| LZ4TU-5 | 2026-09-01 18:46:07 | 44.19737 | 23.24251 | 88° | 33km/h | 18095m | -24.1m/s | -57.9°C | 0.0% | 0hPa | 0V | 00:00:00 | 00:00:00 | 00:00:00 | |
| LZ4TU-5 | 2026-09-01 18:46:02 | 44.19740 | 23.24191 | 99° | 35km/h | 18214m | -23.3m/s | -58.3°C | 0.0% | 0hPa | 0V | 00:00:00 | 00:00:00 | 00:00:00 | |
| LZ4TU-5 | 2026-09-01 18:44:46 | 44.19692 | 23.23665 | 116° | 16km/h | 20068m | -23.6m/s | -54.2°C | 0.0% | 0hPa | 0V | 00:00:00 | 00:00:00 | 00:00:00 | |
| LZ4TU-5 | 2026-09-01 18:44:41 | 44.19706 | 23.23638 | 128° | 20km/h | 20189m | -24.1m/s | -54.2°C | 0.0% | 0hPa | 0V | 00:00:00 | 00:00:00 | 00:00:00 | |
| LZ4TU-5 | 2026-09-01 18:44:36 | 44.19717 | 23.23619 | 129° | 9km/h | 20319m | -27.7m/s | -54.4°C | 0.0% | 0hPa | 0V | 00:00:00 | 00:00:00 | 00:00:00 | |
| LZ4TU-5 | 2026-09-01 18:43:22 | 44.19642 | 23.23619 | 38° | 7km/h | 22232m | -25.8m/s | -54.1°C | 0.0% | 0hPa | 0V | 00:00:00 | 00:00:00 | 00:00:00 | |
| LZ4TU-5 | 2026-09-01 18:43:17 | 44.19630 | 23.23612 | 20° | 15km/h | 22360m | -26.0m/s | -53.8°C | 0% | 0hPa | 0V | 00:00:00 | 00:00:00 | 00:00:00 | |
| LZ4TU-5 | 2026-09-01 18:42:03 | 44.19623 | 23.23532 | 159° | 5km/h | 24387m | -27.9m/s | -52.2°C | 0.0% | 0hPa | 0V | 00:00:00 | 00:00:00 | 00:00:00 | |
| LZ4TU-5 | 2026-09-01 18:41:59 | 44.19625 | 23.23526 | 84° | 5km/h | 24498m | -28.2m/s | -52.2°C | 0.0% | 0hPa | 0V | 00:00:00 | 00:00:00 | 00:00:00 | |
| LZ4TU-5 | 2026-09-01 18:40:37 | 44.19643 | 23.23592 | 358° | 9km/h | 26909m | -31.1m/s | -45.9°C | 0.0% | 0hPa | 0V | 00:00:00 | 00:00:00 | 00:00:00 | |
| LZ4TU-5 | 2026-09-01 18:40:32 | 44.19640 | 23.23588 | 120° | 5km/h | 27071m | -32.4m/s | -46.0°C | 0.0% | 0hPa | 0V | 00:00:00 | 00:00:00 | 00:00:00 | |
| LZ4TU-5 | 2026-09-01 18:39:13 | 44.19865 | 23.23591 | 319° | 16km/h | 29964m | 2.2m/s | -42.4°C | 0.0% | 0hPa | 0V | 00:00:00 | 00:00:00 | 00:00:00 | |
| LZ4TU-5 | 2026-09-01 18:39:09 | 44.19868 | 23.23597 | 326° | 16km/h | 30072m | 3.4m/s | -42.2°C | 0% | 0hPa | 0V | 00:00:00 | 00:00:00 | 00:00:00 | |
| LZ3DJ-16 | 2026-09-01 18:38:41 | 44.19887 | 23.23634 | 281° | 31km/h | 30654m | 7.0m/s | -41.7°C | 0.0% | 0hPa | 0V | 00:00:00 | 00:00:00 | 00:00:00 | |
| LZ3DJ-16 | 2026-09-01 18:38:20 | 44.19881 | 23.23725 | 252° | 24km/h | 30492m | 7.0m/s | -42.1°C | 0.0% | 0hPa | 0V | 00:00:00 | 00:00:00 | 00:00:00 | |
| LZ3DJ-16 | 2026-09-01 18:37:59 | 44.19878 | 23.23859 | 224° | 26km/h | 30337m | 6.8m/s | -42.7°C | 0.0% | 0hPa | 0V | 00:00:00 | 00:00:00 | 00:00:00 | |
| LZ4TU-5 | 2026-09-01 18:37:55 | 44.19886 | 23.23887 | 278° | 11km/h | 30311m | 7.4m/s | -42.9°C | 0.0% | 0hPa | 0V | 00:00:00 | 00:00:00 | 00:00:00 | |
| LZ4TU-5 | 2026-09-01 18:37:50 | 44.19888 | 23.23912 | 237° | 24km/h | 30274m | 7.4m/s | -43.0°C | 0.0% | 0hPa | 0V | 00:00:00 | 00:00:00 | 00:00:00 | |
| OM5KV | 2026-09-01 18:37:45 | 44.19894 | 23.23948 | 209° | 15km/h | 30234m | 6.6m/s | -43.3°C | 0.0% | 0hPa | 0V | 00:00:00 | 00:00:00 | 00:00:00 | |
| OM5KV | 2026-09-01 18:37:43 | 44.19897 | 23.23951 | 207° | 15km/h | 30228m | 6.6m/s | -43.3°C | 0.0% | 0hPa | 0V | 00:00:00 | 00:00:00 | 00:00:00 | |
| LZ3DJ-16 | 2026-09-01 18:37:38 | 44.19908 | 23.23965 | 239° | 13km/h | 30193m | 7.5m/s | -43.3°C | 0.0% | 0hPa | 0V | 00:00:00 | 00:00:00 | 00:00:00 | |
| OM5KV | 2026-09-01 18:37:37 | 44.19910 | 23.23969 | 216° | 15km/h | 30186m | 7.5m/s | -43.3°C | 0.0% | 0hPa | 0V | 00:00:00 | 00:00:00 | 00:00:00 | |
| OM5KV | 2026-09-01 18:37:34 | 44.19929 | 23.23971 | 165° | 29km/h | 30158m | 8.0m/s | -43.2°C | 0.0% | 0hPa | 0V | 00:00:00 | 00:00:00 | 00:00:00 | |
| OM5KV | 2026-09-01 18:37:32 | 44.19931 | 23.23970 | 165° | 9km/h | 30151m | 7.4m/s | -43.2°C | 0.0% | 0hPa | 0V | 00:00:00 | 00:00:00 | 00:00:00 | |
| OM5KV | 2026-09-01 18:37:28 | 44.19943 | 23.23968 | 278° | 7km/h | 30121m | 6.9m/s | -43.1°C | 0.0% | 0hPa | 0V | 00:00:00 | 00:00:00 | 00:00:00 | |
| OM5KV | 2026-09-01 18:37:26 | 44.19946 | 23.23973 | 237° | 7km/h | 30108m | 8.0m/s | -43.1°C | 0.0% | 0hPa | 0V | 00:00:00 | 00:00:00 | 00:00:00 | |
| OM5KV | 2026-09-01 18:37:21 | 44.19947 | 23.23966 | 183° | 16km/h | 30071m | 7.7m/s | -43.2°C | 0.0% | 0hPa | 0V | 00:00:00 | 00:00:00 | 00:00:00 | |
| OM5KV | 2026-09-01 18:37:20 | 44.19951 | 23.23966 | 189° | 16km/h | 30064m | 7.7m/s | -43.2°C | 0.0% | 0hPa | 0V | 00:00:00 | 00:00:00 | 00:00:00 | |
| LZ3DJ-16 | 2026-09-01 18:37:15 | 44.19957 | 23.23975 | 321° | 13km/h | 30025m | 9.0m/s | -43.0°C | 0.0% | 0hPa | 0V | 00:00:00 | 00:00:00 | 00:00:00 | |
| OM5KV | 2026-09-01 18:37:14 | 44.19951 | 23.23975 | 361° | 16km/h | 30017m | 8.1m/s | -43.0°C | 0.0% | 0hPa | 0V | 00:00:00 | 00:00:00 | 00:00:00 | |
| OM5KV | 2026-09-01 18:37:09 | 44.19938 | 23.23967 | 171° | 27km/h | 29980m | 8.5m/s | -42.8°C | 0.0% | 0hPa | 0V | 00:00:00 | 00:00:00 | 00:00:00 | |
| OM5KV | 2026-09-01 18:37:08 | 44.19944 | 23.23966 | 171° | 31km/h | 29972m | 8.4m/s | -42.7°C | 0.0% | 0hPa | 0V | 00:00:00 | 00:00:00 | 00:00:00 | |
| OM5KV | 2026-09-01 18:37:01 | 44.19952 | 23.23974 | 38° | 15km/h | 29911m | 6.8m/s | -42.6°C | 0.0% | 0hPa | 0V | 00:00:00 | 00:00:00 | 00:00:00 | |
| OM5KV | 2026-09-01 18:36:56 | 44.19950 | 23.23974 | 198° | 24km/h | 29876m | 7.4m/s | -42.6°C | 0.0% | 0hPa | 0V | 00:00:00 | 00:00:00 | 00:00:00 | |
| OM5KV | 2026-09-01 18:36:52 | 44.19947 | 23.23998 | 290° | 15km/h | 29849m | 7.6m/s | -42.6°C | 0.0% | 0hPa | 0V | 00:00:00 | 00:00:00 | 00:00:00 | |
| OM5KV | 2026-09-01 18:36:51 | 44.19945 | 23.24001 | 31° | 7km/h | 29842m | 7.7m/s | -42.6°C | 0.0% | 0hPa | 0V | 00:00:00 | 00:00:00 | 00:00:00 | |
| OM5KV | 2026-09-01 18:36:47 | 44.19935 | 23.23994 | 226° | 13km/h | 29807m | 7.0m/s | -42.6°C | 0.0% | 0hPa | 0V | 00:00:00 | 00:00:00 | 00:00:00 | |
| OM5KV | 2026-09-01 18:36:45 | 44.19941 | 23.24002 | 236° | 15km/h | 29793m | 7.2m/s | -42.6°C | 0.0% | 0hPa | 0V | 00:00:00 | 00:00:00 | 00:00:00 | |
| OM5KV | 2026-09-01 18:36:40 | 44.19943 | 23.24018 | 9° | 7km/h | 29755m | 7.2m/s | -42.5°C | 0.0% | 0hPa | 0V | 00:00:00 | 00:00:00 | 00:00:00 | |
| LZ4TU-5 | 2026-09-01 18:36:35 | 44.19945 | 23.24011 | 208° | 16km/h | 29718m | 7.4m/s | -42.3°C | 0.0% | 0hPa | 0V | 00:00:00 | 00:00:00 | 00:00:00 | |
| OM5KV | 2026-09-01 18:36:34 | 44.19949 | 23.24014 | 222° | 20km/h | 29710m | 7.4m/s | -42.3°C | 0.0% | 0hPa | 0V | 00:00:00 | 00:00:00 | 00:00:00 | |
| LZ3DJ-16 | 2026-09-01 18:36:30 | 44.19955 | 23.24030 | 286° | 4km/h | 29678m | 7.5m/s | -42.2°C | 0.0% | 0hPa | 0V | 00:00:00 | 00:00:00 | 00:00:00 | |
| OM5KV | 2026-09-01 18:36:28 | 44.19953 | 23.24026 | 120° | 9km/h | 29660m | 6.7m/s | -42.2°C | 0.0% | 0hPa | 0V | 00:00:00 | 00:00:00 | 00:00:00 | |
| OM5KV | 2026-09-01 18:36:23 | 44.19964 | 23.24031 | 220° | 16km/h | 29623m | 6.6m/s | -42.1°C | 0.0% | 0hPa | 0V | 00:00:00 | 00:00:00 | 00:00:00 | |
| OM5KV | 2026-09-01 18:36:22 | 44.19967 | 23.24035 | 211° | 16km/h | 29616m | 6.4m/s | -42.1°C | 0.0% | 0hPa | 0V | 00:00:00 | 00:00:00 | 00:00:00 | |
| OM5KV | 2026-09-01 18:36:17 | 44.19985 | 23.24035 | 140° | 11km/h | 29579m | 6.0m/s | -42.4°C | 0.0% | 0hPa | 0V | 00:00:00 | 00:00:00 | 00:00:00 | |
| OM5KV | 2026-09-01 18:36:16 | 44.19987 | 23.24033 | 130° | 7km/h | 29573m | 6.0m/s | -42.4°C | 0.0% | 0hPa | 0V | 00:00:00 | 00:00:00 | 00:00:00 | |
| OM5KV | 2026-09-01 18:36:10 | 44.20001 | 23.24067 | 210° | 26km/h | 29532m | 5.4m/s | -42.5°C | 0.0% | 0hPa | 0V | 00:00:00 | 00:00:00 | 00:00:00 | |
| OM5KV | 2026-09-01 18:36:04 | 44.20006 | 23.24080 | 280° | 16km/h | 29492m | 6.5m/s | -42.6°C | 0.0% | 0hPa | 0V | 00:00:00 | 00:00:00 | 00:00:00 | |
| OM5KV | 2026-09-01 18:36:03 | 44.20006 | 23.24086 | 264° | 24km/h | 29485m | 6.4m/s | -42.6°C | 0.0% | 0hPa | 0V | 00:00:00 | 00:00:00 | 00:00:00 | |
| OM5KV | 2026-09-01 18:35:59 | 44.20012 | 23.24113 | 241° | 20km/h | 29456m | 6.4m/s | -42.6°C | 0.0% | 0hPa | 0V | 00:00:00 | 00:00:00 | 00:00:00 | |
| OM5KV | 2026-09-01 18:35:57 | 44.20016 | 23.24119 | 202° | 5km/h | 29438m | 5.8m/s | -42.6°C | 0.0% | 0hPa | 0V | 00:00:00 | 00:00:00 | 00:00:00 | |
| OM5KV | 2026-09-01 18:35:53 | 44.20021 | 23.24125 | 232° | 18km/h | 29411m | 5.8m/s | -42.6°C | 0.0% | 0hPa | 0V | 00:00:00 | 00:00:00 | 00:00:00 | |
| OM5KV | 2026-09-01 18:35:51 | 44.20022 | 23.24138 | 279° | 16km/h | 29399m | 6.2m/s | -42.6°C | 0.0% | 0hPa | 0V | 00:00:00 | 00:00:00 | 00:00:00 | |
| LZ3DJ-16 | 2026-09-01 18:35:47 | 44.20032 | 23.24138 | 165° | 20km/h | 29370m | 5.2m/s | -42.7°C | 0.0% | 0hPa | 0V | 00:00:00 | 00:00:00 | 00:00:00 | |
| OM5KV | 2026-09-01 18:35:46 | 44.20034 | 23.24137 | 132° | 11km/h | 29364m | 4.4m/s | -42.7°C | 0.0% | 0hPa | 0V | 00:00:00 | 00:00:00 | 00:00:00 | |
| OM5KV | 2026-09-01 18:35:42 | 44.20045 | 23.24123 | 277° | 11km/h | 29338m | 4.7m/s | -42.7°C | 0.0% | 0hPa | 0V | 00:00:00 | 00:00:00 | 00:00:00 | |
| OM5KV | 2026-09-01 18:35:40 | 44.20045 | 23.24134 | 269° | 24km/h | 29329m | 5.2m/s | -42.8°C | 0.0% | 0hPa | 0V | 00:00:00 | 00:00:00 | 00:00:00 | |
| OM5KV | 2026-09-01 18:35:37 | 44.20050 | 23.24151 | 220° | 13km/h | 29312m | 6.3m/s | -42.8°C | 0.0% | 0hPa | 0V | 00:00:00 | 00:00:00 | 00:00:00 | |
| OM5KV | 2026-09-01 18:35:33 | 44.20053 | 23.24127 | 91° | 22km/h | 29285m | 7.0m/s | -42.9°C | 0.0% | 0hPa | 0V | 00:00:00 | 00:00:00 | 00:00:00 | |
| OM5KV | 2026-09-01 18:35:31 | 44.20051 | 23.24116 | 294° | 5km/h | 29273m | 7.5m/s | -42.9°C | 0.0% | 0hPa | 0V | 00:00:00 | 00:00:00 | 00:00:00 | |
| LZ3DJ-16 | 2026-09-01 18:35:25 | 44.20063 | 23.24164 | 241° | 24km/h | 29239m | 6.5m/s | -43.0°C | 0.0% | 0hPa | 0V | 00:00:00 | 00:00:00 | 00:00:00 | |
| OM5KV | 2026-09-01 18:35:21 | 44.20064 | 23.24156 | 210° | 15km/h | 29213m | 8.3m/s | -43.2°C | 0.0% | 0hPa | 0V | 00:00:00 | 00:00:00 | 00:00:00 | |
| OM5KV | 2026-09-01 18:35:20 | 44.20066 | 23.24159 | 235° | 26km/h | 29205m | 8.4m/s | -43.2°C | 0.0% | 0hPa | 0V | 00:00:00 | 00:00:00 | 00:00:00 | |
| OM5KV | 2026-09-01 18:35:15 | 44.20086 | 23.24227 | 243° | 49km/h | 29166m | 5.1m/s | -43.4°C | 0.0% | 0hPa | 0V | 00:00:00 | 00:00:00 | 00:00:00 | |
| OM5KV | 2026-09-01 18:35:09 | 44.20101 | 23.24240 | 174° | 22km/h | 29117m | 7.3m/s | -43.6°C | 0.0% | 0hPa | 0V | 00:00:00 | 00:00:00 | 00:00:00 | |
| LZ3DJ-16 | 2026-09-01 18:35:04 | 44.20132 | 23.24243 | 210° | 27km/h | 29081m | 6.9m/s | -43.8°C | 0.0% | 0hPa | 0V | 00:00:00 | 00:00:00 | 00:00:00 | |
| OM5KV | 2026-09-01 18:35:03 | 44.20137 | 23.24249 | 219° | 29km/h | 29074m | 6.6m/s | -43.8°C | 0.0% | 0hPa | 0V | 00:00:00 | 00:00:00 | 00:00:00 | |
| LZ4TU-5 | 2026-09-01 18:35:01 | 44.20143 | 23.24262 | 241° | 15km/h | 29061m | 6.0m/s | -43.9°C | 0.0% | 0hPa | 0V | 00:00:00 | 00:00:00 | 00:00:00 | |
| OM5KV | 2026-09-01 18:34:57 | 44.20151 | 23.24252 | 174° | 22km/h | 29034m | 6.7m/s | -44.0°C | 0.0% | 0hPa | 0V | 00:00:00 | 00:00:00 | 00:00:00 | |
| LZ4TU-5 | 2026-09-01 18:34:56 | 44.20156 | 23.24251 | 185° | 22km/h | 29028m | 6.7m/s | -44.0°C | 0% | 0hPa | 0V | 00:00:00 | 00:00:00 | 00:00:00 | |
| LZ3DJ-16 | 2026-09-01 18:34:43 | 44.20219 | 23.24235 | 175° | 16km/h | 28940m | 6.8m/s | -44.1°C | 0.0% | 0hPa | 0V | 00:00:00 | 00:00:00 | 00:00:00 | |
| OM5KV | 2026-09-01 18:34:33 | 44.20261 | 23.24195 | 157° | 29km/h | 28870m | 7.5m/s | -44.2°C | 0.0% | 0hPa | 0V | 00:00:00 | 00:00:00 | 00:00:00 | |
| LZ3DJ-16 | 2026-09-01 18:34:22 | 44.20316 | 23.24187 | 144° | 22km/h | 28788m | 6.9m/s | -44.5°C | 0.0% | 0hPa | 0V | 00:00:00 | 00:00:00 | 00:00:00 | |
| LZ3DJ-16 | 2026-09-01 18:34:02 | 44.20388 | 23.24175 | 195° | 9km/h | 28652m | 6.9m/s | -44.7°C | 0.0% | 0hPa | 0V | 00:00:00 | 00:00:00 | 00:00:00 | |
| LZ4TU-5 | 2026-09-01 18:33:41 | 44.20468 | 23.24199 | 214° | 15km/h | 28513m | 7.0m/s | -45.2°C | 0.0% | 0hPa | 0V | 00:00:00 | 00:00:00 | 00:00:00 | |
| LZ4TU-5 | 2026-09-01 18:33:36 | 44.20487 | 23.24216 | 206° | 22km/h | 28477m | 7.1m/s | -45.4°C | 0.0% | 0hPa | 0V | 00:00:00 | 00:00:00 | 00:00:00 | |
| LZ3DJ-16 | 2026-09-01 18:33:34 | 44.20498 | 23.24223 | 204° | 22km/h | 28461m | 7.0m/s | -45.5°C | 0.0% | 0hPa | 0V | 00:00:00 | 00:00:00 | 00:00:00 | |
| LZ3DJ-16 | 2026-09-01 18:33:12 | 44.20590 | 23.24220 | 165° | 11km/h | 28311m | 6.6m/s | -46.1°C | 0.0% | 0hPa | 0V | 00:00:00 | 00:00:00 | 00:00:00 | |
| LZ3DJ-16 | 2026-09-01 18:32:48 | 44.20671 | 23.24171 | 164° | 4km/h | 28149m | 6.6m/s | -46.7°C | 0.0% | 0hPa | 0V | 00:00:00 | 00:00:00 | 00:00:00 | |
| LZ3DJ-16 | 2026-09-01 18:32:27 | 44.20683 | 23.24176 | 226° | 15km/h | 28008m | 6.9m/s | -47.3°C | 0.0% | 0hPa | 0V | 00:00:00 | 00:00:00 | 00:00:00 | |
| LZ4TU-5 | 2026-09-01 18:32:23 | 44.20694 | 23.24191 | 215° | 9km/h | 27980m | 7.1m/s | -47.3°C | 0.0% | 0hPa | 0V | 00:00:00 | 00:00:00 | 00:00:00 | |
| LZ4TU-5 | 2026-09-01 18:32:18 | 44.20706 | 23.24200 | 204° | 15km/h | 27944m | 6.9m/s | -47.4°C | 0.0% | 0hPa | 0V | 00:00:00 | 00:00:00 | 00:00:00 | |
| LZ3DJ-16 | 2026-09-01 18:32:02 | 44.20761 | 23.24223 | 175° | 9km/h | 27835m | 7.6m/s | -47.6°C | 0.0% | 0hPa | 0V | 00:00:00 | 00:00:00 | 00:00:00 | |
| LZ3DJ-16 | 2026-09-01 18:31:31 | 44.20811 | 23.24112 | 137° | 2km/h | 27596m | 7.3m/s | -46.9°C | 0.0% | 0hPa | 0V | 00:00:00 | 00:00:00 | 00:00:00 | |
| LZ4TU-5 | 2026-09-01 18:31:03 | 44.20836 | 23.24077 | 158° | 24km/h | 27391m | 7.1m/s | -46.3°C | 0.0% | 0hPa | 0V | 00:00:00 | 00:00:00 | 00:00:00 | |
| LZ4TU-5 | 2026-09-01 18:30:58 | 44.20846 | 23.24082 | 258° | 5km/h | 27357m | 6.4m/s | -46.2°C | 0.0% | 0hPa | 0V | 00:00:00 | 00:00:00 | 00:00:00 | |
| LZ4TU-5 | 2026-09-01 18:29:45 | 44.20848 | 23.24063 | 335° | 5km/h | 26861m | 4.5m/s | -46.6°C | 0.0% | 0hPa | 0V | 00:00:00 | 00:00:00 | 00:00:00 | |
| LZ4TU-5 | 2026-09-01 18:29:40 | 44.20838 | 23.24086 | 305° | 31km/h | 26837m | 4.7m/s | -46.8°C | 0.0% | 0hPa | 0V | 00:00:00 | 00:00:00 | 00:00:00 | |
| LZ4TU-5 | 2026-09-01 18:28:33 | 44.20910 | 23.24231 | 144° | 16km/h | 26359m | 6.3m/s | -48.8°C | 0.0% | 0hPa | 0V | 00:00:00 | 00:00:00 | 00:00:00 | |
| LZ4TU-5 | 2026-09-01 18:28:28 | 44.20936 | 23.24225 | 217° | 7km/h | 26326m | 5.3m/s | -48.8°C | 0% | 0hPa | 0V | 00:00:00 | 00:00:00 | 00:00:00 | |
| LZ4TU-5 | 2026-09-01 18:27:15 | 44.20901 | 23.24214 | 85° | 9km/h | 25846m | 8.0m/s | -50.0°C | 0.0% | 0hPa | 0V | 00:00:00 | 00:00:00 | 00:00:00 | |
| LZ4TU-5 | 2026-09-01 18:27:10 | 44.20897 | 23.24218 | 323° | 9km/h | 25808m | 7.2m/s | -50.0°C | 0.0% | 0hPa | 0V | 00:00:00 | 00:00:00 | 00:00:00 | |
| LZ4TU-5 | 2026-09-01 18:25:57 | 44.20861 | 23.24473 | 286° | 7km/h | 25326m | 6.3m/s | -53.0°C | 0.0% | 0hPa | 0V | 00:00:00 | 00:00:00 | 00:00:00 | |
| LZ4TU-5 | 2026-09-01 18:25:53 | 44.20859 | 23.24484 | 271° | 18km/h | 25299m | 5.6m/s | -52.9°C | 0.0% | 0hPa | 0V | 00:00:00 | 00:00:00 | 00:00:00 | |
| LZ4TU-5 | 2026-09-01 18:24:29 | 44.20980 | 23.24603 | 142° | 20km/h | 24728m | 6.6m/s | -51.9°C | 0.0% | 0hPa | 0V | 00:00:00 | 00:00:00 | 00:00:00 | |
| LZ4TU-5 | 2026-09-01 18:24:24 | 44.20996 | 23.24593 | 188° | 2km/h | 24696m | 6.9m/s | -52.0°C | 0% | 0hPa | 0V | 00:00:00 | 00:00:00 | 00:00:00 | |
| LZ4TU-5 | 2026-09-01 18:23:11 | 44.21009 | 23.24450 | 49° | 9km/h | 24198m | 4.2m/s | -52.5°C | 0.0% | 0hPa | 0V | 00:00:00 | 00:00:00 | 00:00:00 | |
| LZ4TU-5 | 2026-09-01 18:23:07 | 44.21005 | 23.24448 | 284° | 9km/h | 24173m | 3.9m/s | -52.5°C | 0.0% | 0hPa | 0V | 00:00:00 | 00:00:00 | 00:00:00 | |
| LZ4TU-5 | 2026-09-01 18:21:43 | 44.21017 | 23.24453 | 169° | 5km/h | 23666m | 5.9m/s | -52.7°C | 0.0% | 0hPa | 0V | 00:00:00 | 00:00:00 | 00:00:00 | |
| LZ4TU-5 | 2026-09-01 18:21:38 | 44.21030 | 23.24461 | 199° | 11km/h | 23636m | 6.0m/s | -53.0°C | 0.0% | 0hPa | 0V | 00:00:00 | 00:00:00 | 00:00:00 | |
| LZ4TU-5 | 2026-09-01 18:20:23 | 44.21149 | 23.24330 | 128° | 18km/h | 23154m | 7.3m/s | -53.5°C | 0.0% | 0hPa | 0V | 00:00:00 | 00:00:00 | 00:00:00 | |
| LZ4TU-5 | 2026-09-01 18:20:18 | 44.21163 | 23.24300 | 106° | 13km/h | 23115m | 7.4m/s | -53.7°C | 0.0% | 0hPa | 0V | 00:00:00 | 00:00:00 | 00:00:00 | |
| LZ4TU-5 | 2026-09-01 18:19:05 | 44.21053 | 23.24112 | 80° | 22km/h | 22631m | 6.0m/s | -53.4°C | 0.0% | 0hPa | 0V | 00:00:00 | 00:00:00 | 00:00:00 | |
| LZ4TU-5 | 2026-09-01 18:19:00 | 44.21050 | 23.24109 | 338° | 9km/h | 22599m | 7.5m/s | -53.4°C | 0.0% | 0hPa | 0V | 00:00:00 | 00:00:00 | 00:00:00 | |
| LZ4TU-5 | 2026-09-01 18:17:29 | 44.20809 | 23.24014 | 41° | 22km/h | 22036m | 6.6m/s | -54.5°C | 0.0% | 0hPa | 0V | 00:00:00 | 00:00:00 | 00:00:00 | |
| LZ4TU-5 | 2026-09-01 18:17:24 | 44.20790 | 23.24008 | 341° | 7km/h | 22004m | 7.6m/s | -54.6°C | 0.0% | 0hPa | 0V | 00:00:00 | 00:00:00 | 00:00:00 | |
| LZ4TU-5 | 2026-09-01 18:16:10 | 44.20545 | 23.24150 | 301° | 33km/h | 21569m | 6.1m/s | -55.1°C | 0.0% | 0hPa | 0V | 00:00:00 | 00:00:00 | 00:00:00 | |
| LZ4TU-5 | 2026-09-01 18:16:05 | 44.20532 | 23.24178 | 325° | 2km/h | 21541m | 7.7m/s | -54.9°C | 0.0% | 0hPa | 0V | 00:00:00 | 00:00:00 | 00:00:00 | |
| LZ4TU-5 | 2026-09-01 18:14:50 | 44.20523 | 23.24450 | 178° | 9km/h | 21041m | 8.1m/s | -54.0°C | 0.0% | 0hPa | 0V | 00:00:00 | 00:00:00 | 00:00:00 | |
| LZ4TU-5 | 2026-09-01 18:14:46 | 44.20539 | 23.24443 | 166° | 27km/h | 21018m | 6.0m/s | -54.1°C | 0.0% | 0hPa | 0V | 00:00:00 | 00:00:00 | 00:00:00 | |
| LZ4TU-5 | 2026-09-01 18:13:32 | 44.20763 | 23.24313 | 145° | 9km/h | 20564m | 6.5m/s | -54.4°C | 0.0% | 0hPa | 0V | 00:00:00 | 00:00:00 | 00:00:00 | |
| LZ4TU-5 | 2026-09-01 18:13:28 | 44.20777 | 23.24296 | 145° | 16km/h | 20537m | 5.4m/s | -54.3°C | 0% | 0hPa | 0V | 00:00:00 | 00:00:00 | 00:00:00 | |
| LZ4TU-5 | 2026-09-01 18:12:15 | 44.20946 | 23.23958 | 153° | 16km/h | 20073m | 5.5m/s | -54.8°C | 0.0% | 0hPa | 0V | 00:00:00 | 00:00:00 | 00:00:00 | |
| LZ4TU-5 | 2026-09-01 18:12:10 | 44.20945 | 23.23940 | 67° | 16km/h | 20042m | 7.5m/s | -55.0°C | 0.0% | 0hPa | 0V | 00:00:00 | 00:00:00 | 00:00:00 | |
| LZ3DJ-16 | 2026-09-01 18:11:11 | 44.21061 | 23.23592 | 94° | 37km/h | 19665m | 4.4m/s | -57.0°C | 0.0% | 0hPa | 0V | 00:00:00 | 00:00:00 | 00:00:00 | |
| LZ3DJ-16 | 2026-09-01 18:10:49 | 44.21058 | 23.23326 | 50° | 38km/h | 19529m | 7.8m/s | -56.6°C | 0.0% | 0hPa | 0V | 00:00:00 | 00:00:00 | 00:00:00 | |
| LZ4TU-5 | 2026-09-01 18:10:40 | 44.21046 | 23.23241 | 73° | 35km/h | 19473m | 7.1m/s | -56.4°C | 0.0% | 0hPa | 0V | 00:00:00 | 00:00:00 | 00:00:00 | |
| LZ4TU-5 | 2026-09-01 18:10:35 | 44.21027 | 23.23198 | 69° | 18km/h | 19443m | 3.9m/s | -56.2°C | 0.0% | 0hPa | 0V | 00:00:00 | 00:00:00 | 00:00:00 | |
| LZ3DJ-16 | 2026-09-01 18:10:27 | 44.21007 | 23.23138 | 68° | 35km/h | 19395m | 6.5m/s | -56.5°C | 0.0% | 0hPa | 0V | 00:00:00 | 00:00:00 | 00:00:00 | |
| LZ3DJ-16 | 2026-09-01 18:10:04 | 44.20921 | 23.23015 | 63° | 20km/h | 19262m | 5.1m/s | -56.8°C | 0.0% | 0hPa | 0V | 00:00:00 | 00:00:00 | 00:00:00 | |
| LZ4TU-5 | 2026-09-01 18:09:21 | 44.20829 | 23.22682 | 57° | 31km/h | 19020m | 5.8m/s | -57.7°C | 0.0% | 0hPa | 0V | 00:00:00 | 00:00:00 | 00:00:00 | |
| LZ4TU-5 | 2026-09-01 18:09:16 | 44.20807 | 23.22650 | 354° | 9km/h | 18991m | 7.5m/s | -57.9°C | 0% | 0hPa | 0V | 00:00:00 | 00:00:00 | 00:00:00 | |
| LZ4TU-5 | 2026-09-01 18:08:00 | 44.20727 | 23.22327 | 109° | 38km/h | 18519m | 10.0m/s | -59.1°C | 0.0% | 0hPa | 0V | 00:00:00 | 00:00:00 | 00:00:00 | |
| LZ4TU-5 | 2026-09-01 18:07:55 | 44.20756 | 23.22267 | 129° | 44km/h | 18492m | 4.9m/s | -59.2°C | 0.0% | 0hPa | 0V | 00:00:00 | 00:00:00 | 00:00:00 | |
| LZ4TU-5 | 2026-09-01 18:06:41 | 44.20895 | 23.21304 | 103° | 33km/h | 18073m | 5.8m/s | -57.7°C | 0.0% | 0hPa | 0V | 00:00:00 | 00:00:00 | 00:00:00 | |
| LZ4TU-5 | 2026-09-01 18:06:36 | 44.20887 | 23.21230 | 65° | 51km/h | 18044m | 5.0m/s | -57.7°C | 0.0% | 0hPa | 0V | 00:00:00 | 00:00:00 | 00:00:00 | |
| LZ4TU-5 | 2026-09-01 18:05:21 | 44.20655 | 23.20185 | 75° | 51km/h | 17611m | 5.0m/s | -58.5°C | 0.1% | 0hPa | 0V | 00:00:00 | 00:00:00 | 00:00:00 | |
| LZ4TU-5 | 2026-09-01 18:05:16 | 44.20636 | 23.20086 | 69° | 58km/h | 17583m | 5.2m/s | -58.4°C | 0% | 0hPa | 0V | 00:00:00 | 00:00:00 | 00:00:00 | |
| LZ4TU-5 | 2026-09-01 18:04:01 | 44.20368 | 23.18859 | 75° | 44km/h | 17144m | 5.0m/s | -59.2°C | 0.9% | 0hPa | 0V | 00:00:00 | 00:00:00 | 00:00:00 | |
| LZ4TU-5 | 2026-09-01 18:03:56 | 44.20355 | 23.18784 | 92° | 44km/h | 17114m | 5.5m/s | -59.2°C | 0.9% | 0hPa | 0V | 00:00:00 | 00:00:00 | 00:00:00 | |
| LZ4TU-5 | 2026-09-01 18:02:42 | 44.20247 | 23.17620 | 113° | 51km/h | 16678m | 7.2m/s | -59.9°C | 2.1% | 0hPa | 0V | 00:00:00 | 00:00:00 | 00:00:00 | |
| LZ4TU-5 | 2026-09-01 18:02:38 | 44.20256 | 23.17575 | 108° | 27km/h | 16652m | 5.9m/s | -59.8°C | 2.2% | 0hPa | 0V | 00:00:00 | 00:00:00 | 00:00:00 | |
| LZ4TU-5 | 2026-09-01 18:01:23 | 44.20595 | 23.16063 | 88° | 75km/h | 16126m | 3.9m/s | -60.9°C | 3.1% | 0hPa | 0V | 00:00:00 | 00:00:00 | 00:00:00 | |
| LZ4TU-5 | 2026-09-01 18:01:18 | 44.20583 | 23.15952 | 78° | 60km/h | 16096m | 6.4m/s | -61.2°C | 3.2% | 0hPa | 0V | 00:00:00 | 00:00:00 | 00:00:00 | |
| LZ4TU-5 | 2026-09-01 17:59:55 | 44.20307 | 23.13799 | 83° | 57km/h | 15574m | 1.8m/s | -60.9°C | 3.8% | 0hPa | 0V | 00:00:00 | 00:00:00 | 00:00:00 | |
| LZ4TU-5 | 2026-09-01 17:59:50 | 44.20269 | 23.13673 | 61° | 93km/h | 15527m | 7.9m/s | -61.0°C | 3.9% | 0hPa | 0V | 00:00:00 | 00:00:00 | 00:00:00 | |
| LZ4TU-5 | 2026-09-01 17:58:38 | 44.19967 | 23.12060 | 90° | 71km/h | 15027m | 4.3m/s | -59.3°C | 5.5% | 0hPa | 0V | 00:00:00 | 00:00:00 | 00:00:00 | |
| LZ4TU-5 | 2026-09-01 17:58:33 | 44.19960 | 23.11940 | 87° | 75km/h | 15000m | 5.6m/s | -59.3°C | 0% | 0hPa | 0V | 00:00:00 | 00:00:00 | 00:00:00 | |
| LZ4TU-5 | 2026-09-01 17:57:03 | 44.19985 | 23.09466 | 93° | 93km/h | 14481m | 4.1m/s | -58.5°C | 9.8% | 0hPa | 0V | 00:00:00 | 00:00:00 | 00:00:00 | |
| LZ4TU-5 | 2026-09-01 17:56:58 | 44.19988 | 23.09328 | 92° | 77km/h | 14454m | 5.5m/s | -58.5°C | 10.2% | 0hPa | 0V | 00:00:00 | 00:00:00 | 00:00:00 | |
| LZ4TU-5 | 2026-09-01 17:55:45 | 44.19993 | 23.07058 | 96° | 86km/h | 14069m | 4.7m/s | -60.1°C | 15.7% | 0hPa | 0V | 00:00:00 | 00:00:00 | 00:00:00 | |
| LZ4TU-5 | 2026-09-01 17:55:40 | 44.20002 | 23.06891 | 91° | 102km/h | 14042m | 6.0m/s | -60.1°C | 15.8% | 0hPa | 0V | 00:00:00 | 00:00:00 | 00:00:00 | |
| LZ4TU-5 | 2026-09-01 17:54:25 | 44.20217 | 23.04211 | 107° | 106km/h | 13615m | 6.8m/s | -59.9°C | 18.9% | 0hPa | 0V | 00:00:00 | 00:00:00 | 00:00:00 | |
| LZ4TU-5 | 2026-09-01 17:54:20 | 44.20237 | 23.04032 | 92° | 104km/h | 13579m | 6.8m/s | -59.7°C | 0% | 0hPa | 0V | 00:00:00 | 00:00:00 | 00:00:00 | |
| LZ4TU-5 | 2026-09-01 17:53:05 | 44.20366 | 23.00918 | 89° | 137km/h | 13124m | 7.8m/s | -59.4°C | 23.4% | 0hPa | 0V | 00:00:00 | 00:00:00 | 00:00:00 | |
| LZ4TU-5 | 2026-09-01 17:53:00 | 44.20358 | 23.00695 | 88° | 124km/h | 13089m | 7.3m/s | -59.5°C | 23.6% | 0hPa | 0V | 00:00:00 | 00:00:00 | 00:00:00 | |
| LZ4TU-5 | 2026-09-01 17:51:40 | 44.20463 | 22.96981 | 92° | 137km/h | 12636m | 4.7m/s | -57.1°C | 23.3% | 0hPa | 0V | 00:00:00 | 00:00:00 | 00:00:00 | |
| LZ4TU-5 | 2026-09-01 17:50:17 | 44.20539 | 22.92966 | 88° | 142km/h | 12179m | 4.9m/s | -54.6°C | 24.5% | 0hPa | 0V | 00:00:00 | 00:00:00 | 00:00:00 | |
| LZ4TU-5 | 2026-09-01 17:50:13 | 44.20545 | 22.92721 | 95° | 128km/h | 12154m | 4.4m/s | -54.5°C | 0% | 0hPa | 0V | 00:00:00 | 00:00:00 | 00:00:00 | |
| LZ4TU-5 | 2026-09-01 17:48:56 | 44.20498 | 22.89073 | 83° | 137km/h | 11719m | 6.0m/s | -51.9°C | 22.7% | 0hPa | 0V | 00:00:00 | 00:00:00 | 00:00:00 | |
| LZ4TU-5 | 2026-09-01 17:48:52 | 44.20484 | 22.88897 | 92° | 128km/h | 11695m | 5.3m/s | -51.7°C | 22.5% | 0hPa | 0V | 00:00:00 | 00:00:00 | 00:00:00 | |
| LZ4TU-5 | 2026-09-01 17:47:31 | 44.20350 | 22.85252 | 75° | 93km/h | 11194m | 4.0m/s | -48.1°C | 23.9% | 0hPa | 0V | 00:00:00 | 00:00:00 | 00:00:00 | |
| LZ4TU-5 | 2026-09-01 17:47:26 | 44.20346 | 22.85053 | 102° | 131km/h | 11162m | 9.7m/s | -47.9°C | 24.0% | 0hPa | 0V | 00:00:00 | 00:00:00 | 00:00:00 | |
| LZ4TU-5 | 2026-09-01 17:46:13 | 44.20388 | 22.82195 | 91° | 119km/h | 10705m | 8.5m/s | -45.3°C | 22.8% | 0hPa | 0V | 00:00:00 | 00:00:00 | 00:00:00 | |
| LZ4TU-5 | 2026-09-01 17:46:08 | 44.20383 | 22.82005 | 91° | 91km/h | 10669m | 7.4m/s | -45.0°C | 22.8% | 0hPa | 0V | 00:00:00 | 00:00:00 | 00:00:00 | |
| LZ4TU-5 | 2026-09-01 17:44:47 | 44.20512 | 22.79037 | 93° | 104km/h | 10168m | 7.4m/s | -41.5°C | 19.2% | 0hPa | 0V | 00:00:00 | 00:00:00 | 00:00:00 | |
| LZ4TU-5 | 2026-09-01 17:44:42 | 44.20523 | 22.78869 | 98° | 89km/h | 10133m | 7.1m/s | -41.4°C | 19.3% | 0hPa | 0V | 00:00:00 | 00:00:00 | 00:00:00 | |
| LZ4TU-5 | 2026-09-01 17:43:27 | 44.20766 | 22.76510 | 91° | 78km/h | 9681m | 6.4m/s | -38.8°C | 24.4% | 0hPa | 0V | 00:00:00 | 00:00:00 | 00:00:00 | |
| LZ4TU-5 | 2026-09-01 17:43:22 | 44.20782 | 22.76365 | 106° | 93km/h | 9651m | 5.8m/s | -38.6°C | 25.0% | 0hPa | 0V | 00:00:00 | 00:00:00 | 00:00:00 | |
| LZ4TU-5 | 2026-09-01 17:42:07 | 44.21044 | 22.74419 | 91° | 89km/h | 9197m | 2.9m/s | -34.9°C | 26.1% | 0hPa | 0V | 00:00:00 | 00:00:00 | 00:00:00 | |
| LZ4TU-5 | 2026-09-01 17:42:02 | 44.21046 | 22.74290 | 95° | 73km/h | 9167m | 7.1m/s | -34.8°C | 26.3% | 0hPa | 0V | 00:00:00 | 00:00:00 | 00:00:00 | |
| LZ4TU-5 | 2026-09-01 17:40:47 | 44.21313 | 22.72302 | 113° | 82km/h | 8705m | 5.6m/s | -30.7°C | 26.9% | 0hPa | 0V | 00:00:00 | 00:00:00 | 00:00:00 | |
| LZ4TU-5 | 2026-09-01 17:40:42 | 44.21340 | 22.72198 | 97° | 75km/h | 8677m | 6.0m/s | -30.5°C | 27.1% | 0hPa | 0V | 00:00:00 | 00:00:00 | 00:00:00 | |
| LZ4TU-5 | 2026-09-01 17:39:18 | 44.21631 | 22.70048 | 98° | 84km/h | 8189m | 6.4m/s | -26.3°C | 26.8% | 0hPa | 0V | 00:00:00 | 00:00:00 | 00:00:00 | |
| LZ4TU-5 | 2026-09-01 17:39:13 | 44.21647 | 22.69897 | 92° | 58km/h | 8164m | 7.4m/s | -26.2°C | 27.4% | 0hPa | 0V | 00:00:00 | 00:00:00 | 00:00:00 | |
| LZ4TU-5 | 2026-09-01 17:38:05 | 44.21823 | 22.68344 | 93° | 68km/h | 7761m | 6.0m/s | -23.3°C | 30.4% | 0hPa | 0V | 00:00:00 | 00:00:00 | 00:00:00 | |
| LZ4TU-5 | 2026-09-01 17:38:00 | 44.21819 | 22.68229 | 89° | 73km/h | 7733m | 7.6m/s | -23.0°C | 29.0% | 0hPa | 0V | 00:00:00 | 00:00:00 | 00:00:00 | |
| LZ4TU-5 | 2026-09-01 17:36:54 | 44.21932 | 22.66769 | 103° | 75km/h | 7388m | 4.5m/s | -19.9°C | 19.9% | 0hPa | 0V | 00:00:00 | 00:00:00 | 00:00:00 | |
| LZ4TU-5 | 2026-09-01 17:36:49 | 44.21936 | 22.66659 | 80° | 55km/h | 7358m | 4.9m/s | -19.6°C | 19.7% | 0hPa | 0V | 00:00:00 | 00:00:00 | 00:00:00 | |
| LZ4TU-5 | 2026-09-01 17:35:43 | 44.22078 | 22.65285 | 102° | 33km/h | 6977m | 6.5m/s | -16.7°C | 5.8% | 0hPa | 0V | 00:00:00 | 00:00:00 | 00:00:00 | |
| LZ4TU-5 | 2026-09-01 17:35:38 | 44.22075 | 22.65184 | 105° | 77km/h | 6952m | 5.2m/s | -16.5°C | 5.8% | 0hPa | 0V | 00:00:00 | 00:00:00 | 00:00:00 | |
| LZ4TU-5 | 2026-09-01 17:34:24 | 44.22187 | 22.63860 | 92° | 68km/h | 6531m | 5.9m/s | -14.1°C | 7.3% | 0hPa | 0V | 00:00:00 | 00:00:00 | 00:00:00 | |
| LZ4TU-5 | 2026-09-01 17:33:10 | 44.22219 | 22.62570 | 77° | 60km/h | 6118m | 7.0m/s | -11.1°C | 8.1% | 0hPa | 0V | 00:00:00 | 00:00:00 | 00:00:00 | |
| LZ4TU-5 | 2026-09-01 17:33:05 | 44.22227 | 22.62461 | 117° | 38km/h | 6092m | 5.8m/s | -11.0°C | 0% | 0hPa | 0V | 00:00:00 | 00:00:00 | 00:00:00 | |
| LZ4TU-5 | 2026-09-01 17:32:01 | 44.22307 | 22.61451 | 64° | 42km/h | 5734m | 3.7m/s | -8.3°C | 8.0% | 0hPa | 0V | 00:00:00 | 00:00:00 | 00:00:00 | |
| LZ4TU-5 | 2026-09-01 17:31:56 | 44.22319 | 22.61399 | 122° | 33km/h | 5708m | 3.2m/s | -8.1°C | 8.0% | 0hPa | 0V | 00:00:00 | 00:00:00 | 00:00:00 | |
| LZ4TU-5 | 2026-09-01 17:30:54 | 44.22409 | 22.60485 | 110° | 62km/h | 5375m | 6.7m/s | -6.0°C | 8.2% | 0hPa | 0V | 00:00:00 | 00:00:00 | 00:00:00 | |
| LZ4TU-5 | 2026-09-01 17:30:49 | 44.22427 | 22.60388 | 111° | 58km/h | 5345m | 6.4m/s | -5.8°C | 8.1% | 0hPa | 0V | 00:00:00 | 00:00:00 | 00:00:00 | |
| LZ4TU-5 | 2026-09-01 17:29:48 | 44.22660 | 22.59430 | 117° | 29km/h | 4983m | 5.8m/s | -3.1°C | 5.3% | 0hPa | 0V | 00:00:00 | 00:00:00 | 00:00:00 | |
| LZ4TU-5 | 2026-09-01 17:29:43 | 44.22678 | 22.59354 | 91° | 49km/h | 4953m | 5.4m/s | -2.9°C | 5.2% | 0hPa | 0V | 00:00:00 | 00:00:00 | 00:00:00 | |
| LZ4TU-5 | 2026-09-01 17:28:42 | 44.22842 | 22.58530 | 122° | 44km/h | 4583m | 6.2m/s | -1.1°C | 9.1% | 0hPa | 0V | 00:00:00 | 00:00:00 | 00:00:00 | |
| LZ4TU-5 | 2026-09-01 17:28:38 | 44.22840 | 22.58451 | 74° | 55km/h | 4560m | 4.2m/s | -1.1°C | 10.1% | 0hPa | 0V | 00:00:00 | 00:00:00 | 00:00:00 | |
| LZ4TU-5 | 2026-09-01 17:27:36 | 44.22759 | 22.57700 | 82° | 33km/h | 4191m | 5.7m/s | 0.8°C | 12.3% | 0hPa | 0V | 00:00:00 | 00:00:00 | 00:00:00 | |
| LZ4TU-5 | 2026-09-01 17:27:32 | 44.22770 | 22.57648 | 114° | 35km/h | 4170m | 4.8m/s | 0.8°C | 13.1% | 0hPa | 0V | 00:00:00 | 00:00:00 | 00:00:00 | |
| LZ4TU-5 | 2026-09-01 17:26:32 | 44.22643 | 22.57261 | 335° | 7km/h | 3830m | 6.0m/s | 1.7°C | 28.4% | 0hPa | 0V | 00:00:00 | 00:00:00 | 00:00:00 | |
| LZ4TU-5 | 2026-09-01 17:26:27 | 44.22646 | 22.57234 | 76° | 35km/h | 3805m | 5.5m/s | 1.8°C | 29.7% | 0hPa | 0V | 00:00:00 | 00:00:00 | 00:00:00 | |
| LZ4TU-5 | 2026-09-01 17:25:25 | 44.22592 | 22.56753 | 77° | 37km/h | 3484m | 5.9m/s | 4.0°C | 28.5% | 0hPa | 0V | 00:00:00 | 00:00:00 | 00:00:00 | |
| LZ4TU-5 | 2026-09-01 17:25:21 | 44.22604 | 22.56709 | 119° | 22km/h | 3465m | 5.4m/s | 4.1°C | 28.8% | 0hPa | 0V | 00:00:00 | 00:00:00 | 00:00:00 | |
| LZ4TU-5 | 2026-09-01 17:24:03 | 44.22526 | 22.56008 | 32° | 7km/h | 3055m | 5.5m/s | 6.5°C | 56.6% | 0hPa | 0V | 00:00:00 | 00:00:00 | 00:00:00 | |
| LZ4TU-5 | 2026-09-01 17:23:58 | 44.22502 | 22.55960 | 87° | 44km/h | 3028m | 4.6m/s | 6.7°C | 56.4% | 0hPa | 0V | 00:00:00 | 00:00:00 | 00:00:00 | |
| LZ4TU-5 | 2026-09-01 17:22:54 | 44.22433 | 22.55545 | 130° | 24km/h | 2678m | 5.8m/s | 9.4°C | 64.1% | 0hPa | 0V | 00:00:00 | 00:00:00 | 00:00:00 | |
| LZ4TU-5 | 2026-09-01 17:22:50 | 44.22441 | 22.55505 | 76° | 20km/h | 2658m | 6.1m/s | 9.5°C | 0% | 0hPa | 0V | 00:00:00 | 00:00:00 | 00:00:00 | |
| LZ4TU-5 | 2026-09-01 17:21:48 | 44.22415 | 22.55184 | 75° | 18km/h | 2316m | 6.2m/s | 12.5°C | 59.1% | 0hPa | 0V | 00:00:00 | 00:00:00 | 00:00:00 | |
| LZ4TU-5 | 2026-09-01 17:21:44 | 44.22401 | 22.55146 | 65° | 27km/h | 2293m | 3.9m/s | 12.7°C | 58.8% | 0hPa | 0V | 00:00:00 | 00:00:00 | 00:00:00 | |
| LZ4TU-5 | 2026-09-01 17:20:42 | 44.22341 | 22.54895 | 104° | 15km/h | 1925m | 7.1m/s | 14.3°C | 73.1% | 0hPa | 0V | 00:00:00 | 00:00:00 | 00:00:00 | |
| LZ4TU-5 | 2026-09-01 17:20:37 | 44.22334 | 22.54879 | 341° | 11km/h | 1897m | 6.3m/s | 14.5°C | 0% | 0hPa | 0V | 00:00:00 | 00:00:00 | 00:00:00 | |
| LZ4TU-5 | 2026-09-01 17:19:36 | 44.22456 | 22.54929 | 174° | 27km/h | 1542m | 5.4m/s | 17.3°C | 63.4% | 0hPa | 0V | 00:00:00 | 00:00:00 | 00:00:00 | |
| LZ4TU-5 | 2026-09-01 17:19:32 | 44.22475 | 22.54925 | 216° | 15km/h | 1519m | 6.3m/s | 17.5°C | 62.8% | 0hPa | 0V | 00:00:00 | 00:00:00 | 00:00:00 |